This is the latest recevied weather packets stored in our database for station/object ALANSN-2. If no packets are shown the sender has not sent any weather packets the latest 10 day(s).
| Time | Temp. | Humidity | Pressure | Rain* | Wind** | Luminosity | Snow |
|---|---|---|---|---|---|---|---|
| 1777604706 | 2.78° C | 88% | 1022.5 hPa | 0 mm | - | 0 W/m² | - |
| 1777604405 | 2.78° C | 89% | 1022.6 hPa | 0 mm | - | 0 W/m² | - |
| 1777604105 | 2.78° C | 89% | 1022.6 hPa | 0 mm | - | 0 W/m² | - |
| 1777603802 | 2.78° C | 90% | 1022.7 hPa | 0 mm | - | 0 W/m² | - |
| 1777603505 | 2.78° C | 91% | 1022.7 hPa | 0 mm | - | 0 W/m² | - |
| 1777603202 | 2.78° C | 91% | 1022.5 hPa | 0 mm | - | 0 W/m² | - |
| 1777602902 | 2.78° C | 92% | 1022.6 hPa | 0 mm | - | 0 W/m² | - |
| 1777602302 | 2.78° C | 92% | 1022.4 hPa | 0 mm | - | 0 W/m² | - |
| 1777602005 | 3.33° C | 93% | 1022.5 hPa | 0 mm | - | 0 W/m² | - |
| 1777582202 | 5° C | 80% | 1020.9 hPa | 0 mm | - | 202 W/m² | - |
| 1777580706 | 4.44° C | 84% | 1020.8 hPa | 0 mm | - | 631 W/m² | - |
| 1777578306 | 4.44° C | 86% | 1020.9 hPa | 0 mm | - | 511 W/m² | - |
| 1777577705 | 4.44° C | 88% | 1021.1 hPa | 0 mm | - | 450 W/m² | - |
| 1777577405 | 5° C | 86% | 1021.1 hPa | 0 mm | - | 192 W/m² | - |
| 1777575905 | 4.44° C | 83% | 1020.8 hPa | 0 mm | - | 569 W/m² | - |
| 1777574106 | 4.44° C | 83% | 1021.1 hPa | 0 mm | - | 563 W/m² | - |
| 1777571706 | 4.44° C | 82% | 1021.6 hPa | 0 mm | - | 425 W/m² | - |
| 1777571106 | 3.89° C | 86% | 1021.4 hPa | 0 mm | - | 371 W/m² | - |
| 1777569905 | 3.89° C | 90% | 1021.4 hPa | 0 mm | - | 373 W/m² | - |
| 1777569006 | 3.33° C | 92% | 1021.7 hPa | 0 mm | - | 267 W/m² | - |
| 1777568705 | 3.33° C | 94% | 1021.6 hPa | 0 mm | - | 203 W/m² | - |
| 1777566905 | 3.33° C | 92% | 1021.7 hPa | 0 mm | - | 315 W/m² | - |
| 1777563305 | 3.33° C | 93% | 1021.9 hPa | 0 mm | - | 310 W/m² | - |
| 1777562406 | 3.33° C | 93% | 1022.1 hPa | 0 mm | - | 174 W/m² | - |
| 1777559702 | 2.78° C | 94% | 1022.3 hPa | 1.78 mm | - | 190 W/m² | - |
* Rain latest hour (hover to see other rain measurements)
** Current wind speed in m/s (hover to see current wind gust speed)